Time;durP1;ratioP1;P1;durP2;ratioP2;P2;SDS_P1;SDS_P2;PMS_P1;PMS_P2;Temp;Humidity;BMP_temperature;BMP_pressure;BME280_temperature;BME280_humidity;BME280_pressure;Samples;Min_cycle;Max_cycle;Signal;HPM_P1;HPM_P2
2023/10/01 00:01:44;;;;;;;25.98;14.25;;;;;;;22.81;93.18;99210.28;4882612;29;20099;-79
2023/10/01 00:04:31;;;;;;;28.08;15.48;;;;;;;22.80;93.03;99225.50;4889805;29;20128;-81
2023/10/01 00:07:15;;;;;;;26.80;14.48;;;;;;;22.70;94.11;99217.53;4887788;29;20051;-80
2023/10/01 00:10:01;;;;;;;27.75;14.65;;;;;;;23.04;93.13;99218.75;4893257;29;20145;-79
2023/10/01 00:12:50;;;;;;;23.88;13.43;;;;;;;22.87;93.56;99211.84;4904253;29;20117;-80
2023/10/01 00:15:34;;;;;;;23.15;13.30;;;;;;;22.89;93.84;99214.22;4908728;29;20103;-80
2023/10/01 00:18:19;;;;;;;27.02;13.27;;;;;;;22.94;93.34;99209.69;4904979;29;20051;-78
2023/10/01 00:21:03;;;;;;;24.73;12.73;;;;;;;22.97;93.58;99214.47;4907537;29;20182;-82
2023/10/01 00:23:47;;;;;;;21.20;12.05;;;;;;;22.71;94.16;99210.28;4907273;29;20064;-80
2023/10/01 00:26:31;;;;;;;20.55;12.85;;;;;;;22.75;94.68;99205.97;4906812;29;20141;-81
2023/10/01 00:29:15;;;;;;;21.48;12.35;;;;;;;22.83;94.17;99189.38;4905404;29;20248;-80
2023/10/01 00:31:59;;;;;;;23.55;13.35;;;;;;;22.83;94.75;99198.19;4910782;29;20051;-79
2023/10/01 00:34:44;;;;;;;23.52;12.45;;;;;;;22.82;94.66;99203.84;4914518;29;20055;-80
2023/10/01 00:37:29;;;;;;;18.77;12.10;;;;;;;22.87;94.90;99209.16;4891303;29;20104;-79
2023/10/01 00:40:13;;;;;;;22.42;12.25;;;;;;;22.96;94.76;99212.09;4910180;29;20043;-80
2023/10/01 00:42:57;;;;;;;21.48;12.30;;;;;;;22.87;94.72;99213.72;4894275;29;20506;-81
2023/10/01 00:45:41;;;;;;;23.05;12.07;;;;;;;22.89;94.76;99209.69;4905697;29;20526;-82
2023/10/01 00:48:27;;;;;;;19.88;12.25;;;;;;;23.02;94.45;99212.88;4905840;29;20050;-80
2023/10/01 00:51:11;;;;;;;21.33;12.10;;;;;;;22.85;95.23;99207.81;4907810;29;20051;-81
2023/10/01 00:53:58;;;;;;;24.42;12.60;;;;;;;22.91;94.86;99204.88;4912663;29;20056;-82
2023/10/01 00:56:43;;;;;;;25.25;11.68;;;;;;;22.93;95.10;99201.94;4897745;29;20180;-81
2023/10/01 00:59:29;;;;;;;19.88;10.68;;;;;;;23.02;95.10;99210.22;4910740;29;20042;-83
2023/10/01 01:02:15;;;;;;;18.50;11.23;;;;;;;22.92;95.50;99194.97;4912994;29;20039;-82
2023/10/01 01:05:19;;;;;;;17.85;10.65;;;;;;;23.08;95.16;99204.53;4892359;29;20046;-82
2023/10/01 01:08:28;;;;;;;15.52;9.50;;;;;;;23.19;94.79;99204.50;4905047;29;20119;-82
2023/10/01 01:11:16;;;;;;;14.57;9.23;;;;;;;23.10;95.17;99213.13;4890659;29;20530;-81
2023/10/01 01:14:01;;;;;;;14.68;9.18;;;;;;;23.01;95.33;99200.56;4890180;29;20051;-81
2023/10/01 01:16:48;;;;;;;10.98;8.00;;;;;;;22.99;95.91;99192.00;4887374;29;20415;-82
2023/10/01 01:19:34;;;;;;;10.38;7.30;;;;;;;23.10;95.37;99201.59;4889959;29;20137;-79
2023/10/01 01:22:28;;;;;;;14.45;7.50;;;;;;;23.16;95.57;99189.78;4887099;29;20176;-82
2023/10/01 01:25:20;;;;;;;13.45;7.70;;;;;;;23.01;95.71;99192.53;4888328;29;20047;-81
2023/10/01 01:28:12;;;;;;;9.70;7.43;;;;;;;23.22;95.42;99188.69;4892074;29;20124;-82
2023/10/01 01:30:58;;;;;;;11.68;7.28;;;;;;;23.40;95.29;99189.19;4887641;29;20044;-81
2023/10/01 01:33:52;;;;;;;11.82;8.57;;;;;;;23.21;95.85;99189.78;4884459;29;20523;-82
2023/10/01 01:36:38;;;;;;;13.77;8.07;;;;;;;23.20;96.22;99188.19;4891645;29;20043;-81
2023/10/01 01:39:48;;;;;;;11.85;8.45;;;;;;;23.16;96.63;99192.47;4888386;29;20059;-81
2023/10/01 01:42:33;;;;;;;12.38;8.43;;;;;;;23.20;96.27;99190.84;4892598;29;20178;-81
2023/10/01 01:45:20;;;;;;;13.52;9.25;;;;;;;23.23;96.65;99184.94;4883060;29;20056;-82
2023/10/01 01:48:21;;;;;;;15.70;9.82;;;;;;;23.31;96.73;99191.63;4888308;29;20040;-82
2023/10/01 01:51:06;;;;;;;14.18;9.30;;;;;;;23.23;96.77;99182.28;4890081;29;20047;-81
2023/10/01 01:53:50;;;;;;;14.90;9.82;;;;;;;23.32;96.56;99171.00;4883127;29;20080;-82
2023/10/01 01:56:39;;;;;;;14.77;9.75;;;;;;;23.38;96.82;99173.38;4889791;29;20464;-83
2023/10/01 01:59:27;;;;;;;18.50;9.90;;;;;;;23.45;96.90;99172.25;4888306;29;20099;-82
2023/10/01 02:02:13;;;;;;;14.60;10.52;;;;;;;23.44;96.93;99168.81;4885977;29;20043;-83
2023/10/01 02:05:00;;;;;;;17.60;11.55;;;;;;;23.45;96.61;99154.31;4883837;29;20047;-81
2023/10/01 02:07:44;;;;;;;19.08;10.45;;;;;;;23.42;96.95;99154.88;4892274;29;20059;-81
2023/10/01 02:10:31;;;;;;;14.35;10.02;;;;;;;23.23;98.04;99150.13;4893616;29;20112;-81
2023/10/01 02:13:18;;;;;;;17.95;11.13;;;;;;;23.25;98.35;99147.16;4896153;29;20046;-81
2023/10/01 02:16:18;;;;;;;16.27;10.27;;;;;;;23.19;98.91;99137.56;4906133;29;20513;-81
2023/10/01 02:19:21;;;;;;;13.85;9.30;;;;;;;23.50;98.07;99135.53;4893316;29;20055;-81
2023/10/01 02:22:05;;;;;;;13.55;10.02;;;;;;;23.49;98.00;99123.22;4910644;29;20558;-81
2023/10/01 02:24:56;;;;;;;13.43;9.35;;;;;;;23.63;98.17;99138.69;4902250;29;20047;-81
2023/10/01 02:28:10;;;;;;;17.08;8.65;;;;;;;23.56;97.88;99122.91;4901992;29;20050;-81
2023/10/01 02:30:46;;;;;;;13.68;9.07;;;;;;;23.46;98.34;99133.69;4914186;29;20079;-80
2023/10/01 02:36:35;;;;;;;10.75;7.32;;;;;;;23.36;99.77;99121.97;4909893;29;20067;-82
2023/10/01 02:39:21;;;;;;;9.88;7.47;;;;;;;23.31;100.00;99121.19;4906881;29;20110;-80
2023/10/01 02:44:53;;;;;;;10.90;7.07;;;;;;;23.41;100.00;99109.63;4901726;29;20068;-81
2023/10/01 02:47:37;;;;;;;9.82;7.20;;;;;;;23.56;100.00;99114.06;4889723;29;20052;-82
2023/10/01 02:50:21;;;;;;;10.27;6.97;;;;;;;23.47;100.00;99097.78;4902849;29;20055;-80
2023/10/01 02:53:05;;;;;;;11.43;7.25;;;;;;;23.35;100.00;99108.84;4882844;29;20096;-81
2023/10/01 02:55:51;;;;;;;11.93;7.93;;;;;;;23.54;100.00;99100.97;4906586;29;20415;-81
2023/10/01 02:58:37;;;;;;;10.43;7.50;;;;;;;23.67;100.00;99102.19;4900997;29;20139;-80
2023/10/01 03:01:21;;;;;;;9.57;7.00;;;;;;;23.96;99.77;99104.09;4903315;29;20042;-80
2023/10/01 03:04:16;;;;;;;11.77;7.20;;;;;;;23.89;100.00;99101.75;4896647;29;20098;-81
2023/10/01 03:07:04;;;;;;;8.85;5.93;;;;;;;23.74;100.00;99110.72;4892331;29;20129;-81
2023/10/01 03:09:53;;;;;;;8.98;5.60;;;;;;;23.69;100.00;99100.03;4891534;29;20062;-80
2023/10/01 03:12:40;;;;;;;9.02;6.07;;;;;;;23.73;100.00;99106.44;4907238;29;20056;-81
2023/10/01 03:15:29;;;;;;;9.73;5.30;;;;;;;24.06;100.00;99103.22;4906277;29;20123;-80
2023/10/01 03:21:18;;;;;;;6.93;5.13;;;;;;;24.10;100.00;99101.59;4909611;29;20075;-80
2023/10/01 03:24:03;;;;;;;5.18;4.05;;;;;;;24.01;100.00;99111.28;4907009;29;20084;-79
2023/10/01 03:26:47;;;;;;;6.57;4.13;;;;;;;24.13;100.00;99103.72;4910787;29;20078;-79
2023/10/01 03:29:37;;;;;;;8.18;3.63;;;;;;;24.16;100.00;99115.72;4905735;29;20505;-79
2023/10/01 03:32:27;;;;;;;7.05;4.32;;;;;;;24.09;100.00;99105.38;4895717;29;20570;-79
2023/10/01 03:35:11;;;;;;;10.13;3.65;;;;;;;24.05;100.00;99099.75;4895155;29;20068;-79
2023/10/01 03:38:10;;;;;;;5.95;3.80;;;;;;;23.99;100.00;99114.28;4911893;29;20055;-80
2023/10/01 03:41:01;;;;;;;5.78;3.65;;;;;;;24.13;100.00;99100.22;4891898;29;20047;-80
2023/10/01 03:43:47;;;;;;;6.10;3.58;;;;;;;24.18;100.00;99110.91;4909762;29;20103;-80
2023/10/01 03:46:32;;;;;;;4.47;3.40;;;;;;;24.02;100.00;99092.28;4898197;29;20051;-80
2023/10/01 03:49:37;;;;;;;6.80;4.05;;;;;;;24.04;100.00;99111.56;4904138;29;20050;-80
2023/10/01 03:52:21;;;;;;;4.03;3.30;;;;;;;23.99;100.00;99111.59;4908813;29;20047;-79
2023/10/01 03:58:26;;;;;;;8.30;3.80;;;;;;;24.23;100.00;99095.53;4904837;29;20059;-80
2023/10/01 04:01:26;;;;;;;7.22;4.57;;;;;;;24.23;100.00;99105.50;4893860;29;20131;-81
2023/10/01 04:04:11;;;;;;;7.47;4.50;;;;;;;24.23;100.00;99102.81;4897814;29;20043;-80
2023/10/01 04:06:59;;;;;;;6.97;4.50;;;;;;;24.49;100.00;99110.56;4906353;29;20067;-78
2023/10/01 04:09:51;;;;;;;7.55;4.63;;;;;;;24.35;100.00;99116.59;4908675;29;20103;-78
2023/10/01 04:12:34;;;;;;;8.50;4.40;;;;;;;24.09;100.00;99114.19;4892772;29;20055;-79
2023/10/01 04:15:31;;;;;;;7.22;4.47;;;;;;;24.54;100.00;99118.56;4889215;29;20077;-79
2023/10/01 04:23:47;;;;;;;5.30;3.45;;;;;;;24.66;100.00;99110.91;4905273;29;20075;-80
2023/10/01 04:26:33;;;;;;;4.68;3.22;;;;;;;24.64;100.00;99113.09;4892553;29;20456;-80
2023/10/01 04:29:18;;;;;;;7.03;3.42;;;;;;;24.75;100.00;99112.94;4895799;29;20042;-79
2023/10/01 04:32:01;;;;;;;4.20;2.92;;;;;;;24.76;100.00;99109.22;4905686;29;20048;-79
2023/10/01 04:34:45;;;;;;;3.67;2.78;;;;;;;24.91;99.64;99122.44;4894705;29;20100;-80
2023/10/01 04:37:40;;;;;;;5.68;2.63;;;;;;;24.95;99.46;99118.09;4906440;29;20096;-79
2023/10/01 04:40:39;;;;;;;3.33;2.70;;;;;;;24.65;100.00;99125.41;4901932;29;20086;-79
2023/10/01 04:43:26;;;;;;;4.60;2.70;;;;;;;24.47;100.00;99097.47;4906603;29;20039;-79
2023/10/01 04:46:10;;;;;;;4.30;3.13;;;;;;;24.60;100.00;99117.44;4909011;29;20047;-80
2023/10/01 04:48:54;;;;;;;4.40;3.08;;;;;;;24.48;100.00;99114.34;4906289;29;20050;-80
2023/10/01 04:51:47;;;;;;;3.83;2.88;;;;;;;24.72;100.00;99121.59;4895916;29;20127;-79
2023/10/01 04:54:31;;;;;;;4.93;3.20;;;;;;;24.92;100.00;99113.31;4902429;29;20460;-80
2023/10/01 04:57:16;;;;;;;5.75;2.92;;;;;;;24.78;100.00;99115.91;4905204;29;20096;-79
2023/10/01 05:00:00;;;;;;;3.47;2.90;;;;;;;24.75;100.00;99110.28;4895478;29;20119;-80
2023/10/01 05:02:46;;;;;;;4.28;3.00;;;;;;;24.55;100.00;99097.91;4894046;29;20035;-80
2023/10/01 05:05:33;;;;;;;5.72;3.28;;;;;;;24.50;100.00;99090.72;4910085;29;20062;-81
2023/10/01 05:08:17;;;;;;;3.33;2.67;;;;;;;24.59;100.00;99080.16;4887036;29;20164;-80
2023/10/01 05:11:01;;;;;;;4.18;2.85;;;;;;;24.42;100.00;99077.94;4896823;29;20374;-80
2023/10/01 05:13:47;;;;;;;4.30;2.70;;;;;;;24.07;100.00;99097.59;4906558;29;20044;-80
2023/10/01 05:16:38;;;;;;;3.28;2.90;;;;;;;24.44;100.00;99087.28;4889863;29;20533;-79
2023/10/01 05:19:29;;;;;;;2.63;2.42;;;;;;;24.29;100.00;99074.06;4891226;29;20047;-80
2023/10/01 05:22:13;;;;;;;3.42;2.28;;;;;;;24.48;100.00;99084.84;4893390;29;20050;-80
2023/10/01 05:24:58;;;;;;;3.55;2.88;;;;;;;24.13;100.00;99084.13;4911697;29;20595;-81
2023/10/01 05:27:42;;;;;;;3.15;2.35;;;;;;;24.41;100.00;99090.53;4895695;29;20144;-80
2023/10/01 05:30:34;;;;;;;3.83;2.22;;;;;;;24.38;100.00;99094.59;4910903;29;20111;-81
2023/10/01 05:33:19;;;;;;;2.42;2.22;;;;;;;24.48;100.00;99099.06;4884993;29;20119;-80
2023/10/01 05:36:08;;;;;;;2.30;2.10;;;;;;;24.57;100.00;99096.53;4890893;29;20046;-81
2023/10/01 05:38:54;;;;;;;2.63;2.33;;;;;;;24.57;100.00;99119.88;4892563;29;20048;-80
2023/10/01 05:41:44;;;;;;;2.90;2.25;;;;;;;24.66;100.00;99126.22;4894923;29;20036;-80
2023/10/01 05:44:28;;;;;;;2.95;1.98;;;;;;;24.75;100.00;99135.28;4894094;29;20210;-80
2023/10/01 05:47:14;;;;;;;2.78;2.00;;;;;;;24.57;100.00;99147.53;4910190;29;20458;-82
2023/10/01 05:50:08;;;;;;;1.95;1.75;;;;;;;24.48;100.00;99149.22;4890610;29;20075;-80
2023/10/01 05:52:55;;;;;;;2.75;1.58;;;;;;;24.37;100.00;99140.47;4889793;29;20097;-81
2023/10/01 05:55:39;;;;;;;2.10;1.80;;;;;;;24.21;100.00;99126.44;4887355;29;20039;-80
2023/10/01 05:58:26;;;;;;;2.60;2.03;;;;;;;24.14;100.00;99117.91;4905185;29;20091;-80
2023/10/01 06:01:14;;;;;;;1.60;1.50;;;;;;;23.87;100.00;99121.88;4906407;29;20088;-80
2023/10/01 06:03:59;;;;;;;1.77;1.45;;;;;;;24.26;100.00;99131.75;4905560;29;20067;-81
2023/10/01 06:06:45;;;;;;;1.48;1.38;;;;;;;24.35;100.00;99126.56;4892491;29;20096;-80
2023/10/01 06:09:33;;;;;;;1.52;1.42;;;;;;;24.37;100.00;99146.66;4891177;29;20055;-81
2023/10/01 06:12:18;;;;;;;2.15;1.58;;;;;;;24.51;100.00;99138.72;4904889;29;20047;-80
2023/10/01 06:15:09;;;;;;;2.05;1.60;;;;;;;24.62;100.00;99146.66;4890100;29;20514;-80
2023/10/01 06:17:53;;;;;;;1.83;1.65;;;;;;;24.48;100.00;99141.19;4891245;29;20096;-80
2023/10/01 06:20:38;;;;;;;1.33;1.23;;;;;;;24.38;100.00;99142.88;4888860;29;20417;-78
2023/10/01 06:23:23;;;;;;;3.13;1.20;;;;;;;24.44;100.00;99146.31;4907586;29;20099;-81
2023/10/01 06:26:08;;;;;;;1.33;1.23;;;;;;;24.44;100.00;99137.47;4908360;29;20076;-81
2023/10/01 06:28:53;;;;;;;2.65;1.40;;;;;;;24.28;100.00;99134.16;4905606;29;20451;-80
2023/10/01 06:34:43;;;;;;;3.25;1.17;;;;;;;24.63;100.00;99167.03;4908521;29;20059;-80
2023/10/01 06:37:45;;;;;;;2.22;1.60;;;;;;;24.48;100.00;99162.63;4906455;29;20143;-78
2023/10/01 06:40:29;;;;;;;1.40;1.30;;;;;;;24.47;100.00;99150.31;4901382;29;20101;-79
2023/10/01 06:43:15;;;;;;;3.15;1.08;;;;;;;24.62;100.00;99149.34;4896711;29;20043;-84
2023/10/01 06:46:00;;;;;;;1.77;1.10;;;;;;;24.38;100.00;99159.00;4901678;29;20039;-84
2023/10/01 06:48:47;;;;;;;1.20;1.10;;;;;;;24.52;100.00;99163.66;4908442;29;20086;-85
2023/10/01 06:51:43;;;;;;;1.73;1.10;;;;;;;24.72;100.00;99146.56;4886145;29;20590;-84
2023/10/01 06:54:30;;;;;;;1.15;1.10;;;;;;;24.91;100.00;99160.03;4892584;29;20055;-83
2023/10/01 06:57:19;;;;;;;2.40;1.10;;;;;;;24.88;100.00;99160.63;4883564;29;20039;-84
2023/10/01 07:00:12;;;;;;;0.93;0.93;;;;;;;24.99;100.00;99168.56;4887596;29;20074;-83
2023/10/01 07:03:16;;;;;;;1.20;1.10;;;;;;;24.89;100.00;99166.78;4901794;29;20043;-84
2023/10/01 07:06:04;;;;;;;;;;;;;;;25.10;100.00;99164.63;4899178;29;20506;-83
2023/10/01 07:08:48;;;;;;;1.25;1.15;;;;;;;25.31;100.00;99167.06;4887780;29;19966;-85
2023/10/01 07:11:33;;;;;;;1.70;1.00;;;;;;;25.22;100.00;99162.34;4905887;29;20619;-85
2023/10/01 07:14:29;;;;;;;1.05;1.00;;;;;;;25.37;100.00;99176.66;4888573;29;20053;-86
2023/10/01 07:17:15;;;;;;;1.40;1.17;;;;;;;25.06;100.00;99174.38;4907682;29;20131;-83
2023/10/01 07:19:59;;;;;;;1.27;1.17;;;;;;;25.11;100.00;99174.28;4889365;29;20047;-83
2023/10/01 07:22:44;;;;;;;1.45;1.35;;;;;;;25.66;100.00;99184.59;4902525;29;20082;-86
2023/10/01 07:25:42;;;;;;;1.92;1.52;;;;;;;25.66;100.00;99168.47;4888126;29;20099;-85
2023/10/01 07:28:26;;;;;;;7.00;1.90;;;;;;;25.73;99.67;99168.09;4903843;29;20562;-85
2023/10/01 07:31:13;;;;;;;1.85;1.55;;;;;;;25.60;99.82;99158.09;4894350;29;20108;-85
2023/10/01 07:34:01;;;;;;;1.85;1.73;;;;;;;25.43;100.00;99151.31;4905215;29;20546;-83
2023/10/01 07:36:45;;;;;;;2.03;1.58;;;;;;;25.44;100.00;99166.34;4894853;29;20510;-85
2023/10/01 07:39:37;;;;;;;4.05;1.70;;;;;;;25.67;99.60;99158.50;4889864;29;20091;-87
2023/10/01 07:42:23;;;;;;;1.92;1.10;;;;;;;25.57;99.60;99159.47;4909640;29;20035;-88
2023/10/01 07:45:07;;;;;;;1.60;1.50;;;;;;;25.70;99.11;99157.91;4899571;29;20570;-87
2023/10/01 07:47:52;;;;;;;1.60;1.50;;;;;;;25.62;98.86;99142.47;4912215;29;20047;-87
2023/10/01 07:50:38;;;;;;;2.35;1.33;;;;;;;25.57;98.33;99153.31;4910213;29;20442;-86
2023/10/01 07:53:42;;;;;;;3.03;1.35;;;;;;;25.88;98.79;99163.56;4893367;29;20134;-86
2023/10/01 07:56:27;;;;;;;2.63;1.45;;;;;;;25.80;98.30;99152.41;4910021;29;20051;-87
2023/10/01 07:59:28;;;;;;;2.05;1.17;;;;;;;25.75;98.12;99152.47;4892569;29;20141;-84
2023/10/01 08:07:43;;;;;;;1.40;1.10;;;;;;;25.95;96.12;99185.53;4915395;29;20051;-87
2023/10/01 08:10:29;;;;;;;2.05;1.20;;;;;;;25.77;96.78;99182.56;4912144;29;20132;-87
2023/10/01 08:13:25;;;;;;;1.67;1.00;;;;;;;25.44;97.82;99178.97;4894484;29;20059;-87
2023/10/01 08:16:13;;;;;;;1.25;1.02;;;;;;;25.46;97.44;99190.25;4892172;29;20128;-84
2023/10/01 08:19:05;;;;;;;1.80;0.80;;;;;;;25.89;96.97;99202.81;4895647;29;20047;-87
2023/10/01 08:21:53;;;;;;;1.10;1.00;;;;;;;26.20;95.86;99153.94;4898218;29;20096;-86
2023/10/01 08:24:37;;;;;;;0.70;0.70;;;;;;;26.64;95.33;99190.25;4900441;29;20100;-86
2023/10/01 08:27:31;;;;;;;0.85;0.85;;;;;;;26.54;94.99;99206.63;4899909;29;20063;-86
2023/10/01 08:30:18;;;;;;;4.78;0.80;;;;;;;26.28;94.98;99225.88;4902197;29;20039;-85
2023/10/01 08:33:18;;;;;;;0.70;0.70;;;;;;;26.54;94.10;99187.78;4889731;29;20052;-85
2023/10/01 08:36:48;;;;;;;2.45;0.93;;;;;;;26.33;93.95;99184.63;4902234;29;20047;-87
2023/10/01 08:39:33;;;;;;;2.20;0.90;;;;;;;26.10;94.76;99181.78;4907502;29;20060;-85
2023/10/01 08:42:17;;;;;;;1.15;0.90;;;;;;;26.46;94.24;99169.59;4902087;29;20048;-88
2023/10/01 08:45:06;;;;;;;0.75;0.70;;;;;;;26.72;94.16;99182.56;4888656;29;20513;-87
2023/10/01 08:47:50;;;;;;;0.80;0.80;;;;;;;26.94;93.59;99180.03;4906838;29;20493;-85
2023/10/01 08:50:40;;;;;;;2.20;0.93;;;;;;;26.91;92.81;99193.28;4895202;29;20087;-86
2023/10/01 08:53:25;;;;;;;0.68;0.68;;;;;;;26.84;93.24;99201.72;4909110;29;20120;-89
2023/10/01 08:56:32;;;;;;;0.80;0.80;;;;;;;26.75;92.19;99203.53;4910513;29;20566;-88
2023/10/01 08:59:23;;;;;;;0.70;0.70;;;;;;;26.91;92.92;99202.16;4907187;29;20407;-89
2023/10/01 09:02:19;;;;;;;1.30;0.80;;;;;;;27.11;91.60;99210.91;4897933;29;20051;-88
2023/10/01 09:05:07;;;;;;;3.75;1.20;;;;;;;27.29;91.17;99203.81;4905894;29;20506;-87
2023/10/01 09:11:10;;;;;;;4.00;0.90;;;;;;;27.56;89.66;99212.97;4915250;29;20134;-89
2023/10/01 09:13:58;;;;;;;2.92;1.10;;;;;;;27.26;89.79;99200.91;4890933;29;20076;-89
2023/10/01 09:16:44;;;;;;;2.05;1.10;;;;;;;27.27;89.62;99218.69;4911279;29;20043;-90
2023/10/01 09:19:46;;;;;;;0.82;0.82;;;;;;;27.09;89.30;99205.03;4897601;29;20055;-89
2023/10/01 09:25:25;;;;;;;0.85;0.82;;;;;;;26.87;90.97;99220.00;4908272;29;20140;-91
2023/10/01 09:28:29;;;;;;;2.05;0.80;;;;;;;27.42;89.84;99223.75;4894189;29;20142;-90
2023/10/01 09:31:29;;;;;;;2.10;0.95;;;;;;;27.75;88.48;99203.91;4893943;29;20047;-91
2023/10/01 09:34:31;;;;;;;0.70;0.70;;;;;;;27.99;88.33;99230.59;4899526;29;20044;-87
2023/10/01 09:37:42;;;;;;;0.90;0.90;;;;;;;27.79;87.60;99210.28;4895939;29;20099;-89
2023/10/01 09:43:19;;;;;;;0.80;0.80;;;;;;;27.69;87.00;99224.78;4909154;29;20403;-86
2023/10/01 09:46:06;;;;;;;2.00;1.02;;;;;;;27.79;86.87;99215.69;4896864;29;20039;-88
2023/10/01 09:49:00;;;;;;;1.20;1.10;;;;;;;27.85;86.51;99205.56;4913255;29;20133;-88
2023/10/01 09:51:45;;;;;;;;;;;;;;;27.50;86.64;99220.31;4906154;29;20493;-87
2023/10/01 09:54:41;;;;;;;2.13;0.80;;;;;;;27.55;87.14;99199.78;4902655;29;19923;-89
2023/10/01 09:57:26;;;;;;;2.53;1.52;;;;;;;27.28;86.37;99191.44;4888729;29;20104;-89
2023/10/01 10:00:20;;;;;;;1.55;1.00;;;;;;;27.71;85.93;99198.34;4895708;29;20043;-90
2023/10/01 10:03:11;;;;;;;2.50;1.05;;;;;;;27.92;85.28;99214.06;4913564;29;20043;-84
2023/10/01 10:05:56;;;;;;;1.05;0.90;;;;;;;27.82;85.15;99212.41;4914880;29;20119;-87
2023/10/01 10:08:40;;;;;;;1.05;0.82;;;;;;;27.88;85.81;99216.56;4893117;29;20074;-88
2023/10/01 10:11:26;;;;;;;1.08;0.93;;;;;;;27.89;85.80;99220.03;4912812;29;20115;-90
2023/10/01 10:14:33;;;;;;;0.98;0.80;;;;;;;27.69;85.73;99235.59;4899158;29;20060;-89
2023/10/01 10:20:24;;;;;;;4.10;3.80;;;;;;;27.72;85.95;99221.50;4905709;29;20391;-89
2023/10/01 10:23:13;;;;;;;1.60;1.00;;;;;;;27.52;86.54;99209.28;4896149;29;20039;-89
2023/10/01 10:26:35;;;;;;;0.93;0.90;;;;;;;27.77;85.86;99234.88;4897339;29;20115;-89
2023/10/01 10:29:19;;;;;;;0.80;0.80;;;;;;;27.58;86.87;99215.38;4896510;29;20058;-89
2023/10/01 10:32:09;;;;;;;0.77;0.77;;;;;;;27.66;86.98;99209.22;4900824;29;20047;-88
2023/10/01 10:35:15;;;;;;;1.45;0.80;;;;;;;27.85;87.02;99230.66;4895803;29;20111;-89
2023/10/01 10:37:59;;;;;;;0.98;0.98;;;;;;;27.63;86.71;99209.84;4889703;29;20047;-88
2023/10/01 10:41:05;;;;;;;0.90;0.90;;;;;;;27.62;87.39;99238.72;4893233;29;20044;-90
2023/10/01 10:44:09;;;;;;;0.80;0.70;;;;;;;27.78;86.49;99227.56;4893417;29;20047;-88
2023/10/01 10:47:04;;;;;;;1.23;0.98;;;;;;;27.51;86.77;99231.91;4906603;29;20101;-92
2023/10/01 10:49:52;;;;;;;0.73;0.73;;;;;;;27.31;86.84;99244.72;4909563;29;20039;-87
2023/10/01 10:52:36;;;;;;;1.85;0.70;;;;;;;27.39;86.50;99240.53;4889818;29;20056;-88
2023/10/01 10:55:21;;;;;;;2.75;0.98;;;;;;;27.06;87.63;99243.34;4896166;29;20059;-88
2023/10/01 10:58:12;;;;;;;0.70;0.70;;;;;;;26.93;89.51;99250.34;4897576;29;20053;-88
2023/10/01 11:00:56;;;;;;;1.05;0.95;;;;;;;26.75;89.92;99235.84;4897224;29;20070;-89
2023/10/01 11:03:41;;;;;;;2.53;2.33;;;;;;;26.46;91.33;99242.25;4905129;29;20043;-90
2023/10/01 11:06:39;;;;;;;1.75;0.75;;;;;;;26.67;91.41;99216.56;4911128;29;20179;-87
2023/10/01 11:09:26;;;;;;;0.80;0.80;;;;;;;26.73;91.23;99224.59;4906768;29;20488;-87
2023/10/01 11:12:19;;;;;;;1.85;1.13;;;;;;;26.78;91.51;99227.16;4896621;29;20124;-88
2023/10/01 11:15:24;;;;;;;0.88;0.88;;;;;;;26.91;91.54;99214.81;4893761;29;20131;-88
2023/10/01 11:18:09;;;;;;;0.90;0.80;;;;;;;26.59;92.30;99201.13;4898101;29;20075;-89
2023/10/01 11:21:01;;;;;;;1.58;0.85;;;;;;;27.28;91.26;99217.59;4898780;29;20083;-88
2023/10/01 11:23:45;;;;;;;0.85;0.82;;;;;;;27.37;90.35;99215.78;4889858;29;20402;-85
2023/10/01 11:26:29;;;;;;;0.73;0.73;;;;;;;27.44;90.61;99223.47;4906938;29;20064;-84
2023/10/01 11:29:22;;;;;;;0.80;0.80;;;;;;;27.41;90.76;99241.03;4888816;29;20050;-84
2023/10/01 11:32:07;;;;;;;0.80;0.80;;;;;;;27.61;90.44;99236.31;4904175;29;20076;-84
2023/10/01 11:34:55;;;;;;;0.98;0.80;;;;;;;27.94;90.71;99230.72;4901975;29;20489;-85
2023/10/01 11:37:41;;;;;;;0.70;0.70;;;;;;;27.67;89.66;99235.09;4903624;29;20048;-84
2023/10/01 11:41:06;;;;;;;0.90;0.90;;;;;;;28.14;88.12;99237.50;4890240;29;20048;-84
2023/10/01 11:43:40;;;;;;;1.25;0.80;;;;;;;27.71;88.18;99224.50;4904076;29;20471;-84
2023/10/01 11:46:57;;;;;;;1.27;1.00;;;;;;;27.93;87.76;99231.81;4907448;29;20054;-84
2023/10/01 11:49:44;;;;;;;1.40;1.30;;;;;;;27.95;86.79;99232.31;4907688;29;20051;-84
2023/10/01 11:52:27;;;;;;;1.95;0.90;;;;;;;28.25;86.99;99230.00;4907399;29;20094;-84
2023/10/01 11:55:20;;;;;;;1.08;0.98;;;;;;;28.17;86.55;99236.91;4907662;29;20051;-85
2023/10/01 11:58:04;;;;;;;1.03;1.00;;;;;;;28.07;86.98;99237.16;4896500;29;20549;-84
2023/10/01 12:00:59;;;;;;;1.00;1.00;;;;;;;28.00;85.67;99242.97;4886930;29;20521;-84
2023/10/01 12:03:58;;;;;;;1.30;1.00;;;;;;;28.47;86.67;99233.75;4907012;29;20075;-85
2023/10/01 12:06:43;;;;;;;1.00;0.90;;;;;;;28.05;86.03;99234.75;4907790;29;20051;-84
2023/10/01 12:09:39;;;;;;;0.90;0.90;;;;;;;28.31;86.40;99242.28;4902449;29;20140;-83
2023/10/01 12:12:39;;;;;;;0.80;0.80;;;;;;;28.63;85.57;99247.69;4893704;29;20518;-84
2023/10/01 12:15:50;;;;;;;2.47;0.90;;;;;;;28.24;85.70;99231.09;4904572;29;20047;-83
2023/10/01 12:18:46;;;;;;;0.77;0.77;;;;;;;28.78;84.60;99232.97;4907495;29;20103;-84
2023/10/01 12:21:33;;;;;;;1.65;1.10;;;;;;;29.09;84.10;99240.25;4885976;29;20043;-83
2023/10/01 12:24:18;;;;;;;3.00;1.02;;;;;;;29.03;83.18;99238.78;4890354;29;20055;-84
2023/10/01 12:27:07;;;;;;;0.98;0.90;;;;;;;28.17;84.09;99242.31;4891204;29;20104;-83
2023/10/01 12:29:53;;;;;;;0.80;0.80;;;;;;;28.55;83.93;99227.63;4905201;29;20558;-83
2023/10/01 12:32:42;;;;;;;0.95;0.93;;;;;;;28.71;83.40;99227.22;4907016;29;20096;-84
2023/10/01 12:35:29;;;;;;;1.05;1.00;;;;;;;28.40;83.66;99230.72;4890197;29;20060;-84
2023/10/01 12:41:01;;;;;;;1.02;0.80;;;;;;;28.46;83.71;99224.06;4906720;29;20450;-83
2023/10/01 12:43:45;;;;;;;1.10;0.77;;;;;;;28.57;83.12;99230.81;4904548;29;20101;-83
2023/10/01 12:46:30;;;;;;;0.70;0.70;;;;;;;28.41;83.88;99224.22;4886974;29;20070;-83
2023/10/01 12:49:14;;;;;;;0.80;0.80;;;;;;;28.39;83.37;99231.81;4906114;29;20056;-85
2023/10/01 12:52:09;;;;;;;1.70;0.90;;;;;;;28.17;84.18;99236.13;4895569;29;20060;-84
2023/10/01 12:55:00;;;;;;;0.93;0.93;;;;;;;28.18;84.38;99251.22;4884060;29;20051;-83
2023/10/01 12:57:46;;;;;;;0.90;0.90;;;;;;;27.75;85.14;99242.47;4892482;29;20043;-85
2023/10/01 13:00:45;;;;;;;1.20;0.82;;;;;;;28.30;84.85;99240.69;4906319;29;20055;-84
2023/10/01 13:03:30;;;;;;;1.08;0.98;;;;;;;28.37;84.31;99229.41;4902664;29;20108;-83
2023/10/01 13:06:14;;;;;;;0.98;0.95;;;;;;;28.31;84.55;99226.06;4893107;29;20043;-83
2023/10/01 13:09:00;;;;;;;0.65;0.65;;;;;;;28.62;84.07;99241.47;4904918;29;20062;-84
2023/10/01 13:11:50;;;;;;;1.35;0.80;;;;;;;28.19;84.80;99255.53;4891481;29;20056;-84
2023/10/01 13:14:34;;;;;;;0.88;0.85;;;;;;;28.01;85.79;99239.19;4901793;29;20051;-84
2023/10/01 13:17:21;;;;;;;0.60;0.60;;;;;;;27.53;86.84;99242.44;4907434;29;20047;-83
2023/10/01 13:20:22;;;;;;;1.20;0.70;;;;;;;27.47;87.15;99252.50;4904865;29;20048;-85
2023/10/01 13:23:09;;;;;;;0.80;0.80;;;;;;;27.76;86.50;99238.69;4905875;29;20047;-84
2023/10/01 13:26:06;;;;;;;0.60;0.60;;;;;;;27.96;86.42;99236.59;4891686;29;20158;-84
2023/10/01 13:28:53;;;;;;;0.50;0.50;;;;;;;28.00;86.03;99232.19;4903272;29;20052;-84
2023/10/01 13:31:40;;;;;;;0.60;0.60;;;;;;;28.42;85.57;99232.00;4907648;29;20124;-85
2023/10/01 13:34:32;;;;;;;0.95;0.68;;;;;;;28.12;84.29;99225.44;4891576;29;20071;-83
2023/10/01 13:40:42;;;;;;;0.70;0.70;;;;;;;28.42;83.27;99247.41;4904528;29;20517;-84
2023/10/01 14:11:07;;;;;;;1.77;1.00;;;;;;;28.36;81.52;99217.03;4895812;29;20059;-81
2023/10/01 14:13:51;;;;;;;0.77;0.77;;;;;;;28.06;81.97;99220.16;4883682;29;20169;-80
2023/10/01 14:16:36;;;;;;;0.90;0.90;;;;;;;28.02;82.23;99213.00;4891875;29;20399;-83
2023/10/01 14:19:20;;;;;;;0.70;0.70;;;;;;;27.79;82.48;99205.69;4891426;29;20185;-82
2023/10/01 14:22:05;;;;;;;1.20;0.80;;;;;;;27.67;83.05;99224.31;4888362;29;20088;-83
2023/10/01 14:24:50;;;;;;;0.80;0.80;;;;;;;27.44;84.01;99194.59;4893902;29;20127;-81